sensor_id;sensor_type;location;lat;lon;timestamp;P1;durP1;ratioP1;P2;durP2;ratioP2
77026;SDS011;65956;52.986;17.490;2023-05-25T00:01:18;18.20;;;11.80;;
77026;SDS011;65956;52.986;17.490;2023-05-25T00:03:44;17.40;;;11.10;;
77026;SDS011;65956;52.986;17.490;2023-05-25T00:06:10;16.90;;;9.90;;
77026;SDS011;65956;52.986;17.490;2023-05-25T00:08:39;19.20;;;11.30;;
77026;SDS011;65956;52.986;17.490;2023-05-25T00:11:06;18.90;;;11.00;;
77026;SDS011;65956;52.986;17.490;2023-05-25T00:13:32;14.10;;;9.00;;
77026;SDS011;65956;52.986;17.490;2023-05-25T00:15:58;19.20;;;10.30;;
77026;SDS011;65956;52.986;17.490;2023-05-25T00:18:24;16.80;;;9.70;;
77026;SDS011;65956;52.986;17.490;2023-05-25T00:20:50;19.00;;;11.30;;
77026;SDS011;65956;52.986;17.490;2023-05-25T00:23:19;15.70;;;9.50;;
77026;SDS011;65956;52.986;17.490;2023-05-25T00:25:45;15.90;;;11.00;;
77026;SDS011;65956;52.986;17.490;2023-05-25T00:28:12;22.90;;;11.70;;
77026;SDS011;65956;52.986;17.490;2023-05-25T00:30:38;16.30;;;9.50;;
77026;SDS011;65956;52.986;17.490;2023-05-25T00:33:04;18.20;;;10.80;;
77026;SDS011;65956;52.986;17.490;2023-05-25T00:35:30;16.30;;;10.20;;
77026;SDS011;65956;52.986;17.490;2023-05-25T00:37:56;18.90;;;10.90;;
77026;SDS011;65956;52.986;17.490;2023-05-25T00:40:22;15.80;;;10.50;;
77026;SDS011;65956;52.986;17.490;2023-05-25T00:42:48;18.60;;;10.20;;
77026;SDS011;65956;52.986;17.490;2023-05-25T00:45:15;18.60;;;9.50;;
77026;SDS011;65956;52.986;17.490;2023-05-25T00:47:41;15.60;;;9.80;;
77026;SDS011;65956;52.986;17.490;2023-05-25T00:50:09;14.10;;;9.00;;
77026;SDS011;65956;52.986;17.490;2023-05-25T00:52:37;16.10;;;9.20;;
77026;SDS011;65956;52.986;17.490;2023-05-25T00:55:04;16.80;;;10.70;;
77026;SDS011;65956;52.986;17.490;2023-05-25T00:57:33;18.00;;;9.10;;
77026;SDS011;65956;52.986;17.490;2023-05-25T01:00:03;16.10;;;9.00;;
77026;SDS011;65956;52.986;17.490;2023-05-25T01:02:35;18.10;;;10.30;;
77026;SDS011;65956;52.986;17.490;2023-05-25T01:05:05;17.30;;;9.90;;
77026;SDS011;65956;52.986;17.490;2023-05-25T01:07:31;17.50;;;9.00;;
77026;SDS011;65956;52.986;17.490;2023-05-25T01:09:59;14.40;;;7.90;;
77026;SDS011;65956;52.986;17.490;2023-05-25T01:12:29;16.60;;;10.50;;
77026;SDS011;65956;52.986;17.490;2023-05-25T01:14:59;13.30;;;8.60;;
77026;SDS011;65956;52.986;17.490;2023-05-25T01:17:28;17.20;;;9.70;;
77026;SDS011;65956;52.986;17.490;2023-05-25T01:19:54;19.30;;;10.20;;
77026;SDS011;65956;52.986;17.490;2023-05-25T01:25:26;14.60;;;8.40;;
77026;SDS011;65956;52.986;17.490;2023-05-25T01:28:01;13.40;;;8.30;;
77026;SDS011;65956;52.986;17.490;2023-05-25T01:30:31;17.20;;;9.80;;
77026;SDS011;65956;52.986;17.490;2023-05-25T01:32:58;16.20;;;9.40;;
77026;SDS011;65956;52.986;17.490;2023-05-25T01:35:24;17.10;;;8.90;;
77026;SDS011;65956;52.986;17.490;2023-05-25T01:37:52;14.80;;;9.60;;
77026;SDS011;65956;52.986;17.490;2023-05-25T01:40:18;15.60;;;9.70;;
77026;SDS011;65956;52.986;17.490;2023-05-25T01:42:44;16.70;;;9.20;;
77026;SDS011;65956;52.986;17.490;2023-05-25T01:45:10;14.80;;;8.70;;
77026;SDS011;65956;52.986;17.490;2023-05-25T01:47:45;15.90;;;8.70;;
77026;SDS011;65956;52.986;17.490;2023-05-25T01:53:22;16.60;;;9.50;;
77026;SDS011;65956;52.986;17.490;2023-05-25T01:55:54;16.00;;;8.90;;
77026;SDS011;65956;52.986;17.490;2023-05-25T01:58:24;16.70;;;8.00;;
77026;SDS011;65956;52.986;17.490;2023-05-25T02:00:52;14.40;;;8.30;;
77026;SDS011;65956;52.986;17.490;2023-05-25T02:03:18;14.20;;;8.70;;
77026;SDS011;65956;52.986;17.490;2023-05-25T02:05:45;16.20;;;8.80;;
77026;SDS011;65956;52.986;17.490;2023-05-25T02:08:11;14.40;;;8.50;;
77026;SDS011;65956;52.986;17.490;2023-05-25T02:10:37;16.40;;;8.50;;
77026;SDS011;65956;52.986;17.490;2023-05-25T02:13:03;13.10;;;8.40;;
77026;SDS011;65956;52.986;17.490;2023-05-25T02:15:31;16.90;;;8.40;;
77026;SDS011;65956;52.986;17.490;2023-05-25T02:17:58;15.30;;;8.30;;
77026;SDS011;65956;52.986;17.490;2023-05-25T02:20:27;14.50;;;7.80;;
77026;SDS011;65956;52.986;17.490;2023-05-25T02:22:53;16.80;;;8.00;;
77026;SDS011;65956;52.986;17.490;2023-05-25T02:25:19;12.30;;;6.80;;
77026;SDS011;65956;52.986;17.490;2023-05-25T02:27:45;12.20;;;6.70;;
77026;SDS011;65956;52.986;17.490;2023-05-25T02:30:11;14.10;;;8.10;;
77026;SDS011;65956;52.986;17.490;2023-05-25T02:32:37;15.90;;;7.00;;
77026;SDS011;65956;52.986;17.490;2023-05-25T02:35:03;10.20;;;6.50;;
77026;SDS011;65956;52.986;17.490;2023-05-25T02:37:29;12.10;;;7.10;;
77026;SDS011;65956;52.986;17.490;2023-05-25T02:39:56;12.80;;;6.70;;
77026;SDS011;65956;52.986;17.490;2023-05-25T02:42:22;11.40;;;7.10;;
77026;SDS011;65956;52.986;17.490;2023-05-25T02:44:48;12.60;;;6.70;;
77026;SDS011;65956;52.986;17.490;2023-05-25T02:47:14;11.70;;;7.20;;
77026;SDS011;65956;52.986;17.490;2023-05-25T02:49:41;12.50;;;7.50;;
77026;SDS011;65956;52.986;17.490;2023-05-25T02:52:07;14.20;;;7.80;;
77026;SDS011;65956;52.986;17.490;2023-05-25T02:54:34;12.40;;;6.60;;
77026;SDS011;65956;52.986;17.490;2023-05-25T02:57:01;11.10;;;6.70;;
77026;SDS011;65956;52.986;17.490;2023-05-25T02:59:28;11.80;;;7.00;;
77026;SDS011;65956;52.986;17.490;2023-05-25T03:01:54;10.70;;;5.80;;
77026;SDS011;65956;52.986;17.490;2023-05-25T03:04:20;11.40;;;6.80;;
77026;SDS011;65956;52.986;17.490;2023-05-25T03:06:47;12.10;;;6.60;;
77026;SDS011;65956;52.986;17.490;2023-05-25T03:09:16;12.90;;;6.70;;
77026;SDS011;65956;52.986;17.490;2023-05-25T03:11:43;12.20;;;6.50;;
77026;SDS011;65956;52.986;17.490;2023-05-25T03:14:12;14.40;;;7.30;;
77026;SDS011;65956;52.986;17.490;2023-05-25T03:16:38;12.00;;;6.60;;
77026;SDS011;65956;52.986;17.490;2023-05-25T03:19:04;12.10;;;6.30;;
77026;SDS011;65956;52.986;17.490;2023-05-25T03:21:31;12.40;;;6.70;;
77026;SDS011;65956;52.986;17.490;2023-05-25T03:23:57;12.00;;;6.80;;
77026;SDS011;65956;52.986;17.490;2023-05-25T03:26:24;14.90;;;7.50;;
77026;SDS011;65956;52.986;17.490;2023-05-25T03:28:52;14.10;;;6.80;;
77026;SDS011;65956;52.986;17.490;2023-05-25T03:31:18;13.20;;;7.40;;
77026;SDS011;65956;52.986;17.490;2023-05-25T03:33:44;18.60;;;8.00;;
77026;SDS011;65956;52.986;17.490;2023-05-25T03:36:10;11.30;;;6.50;;
77026;SDS011;65956;52.986;17.490;2023-05-25T03:38:37;13.80;;;7.90;;
77026;SDS011;65956;52.986;17.490;2023-05-25T03:41:03;11.90;;;6.30;;
77026;SDS011;65956;52.986;17.490;2023-05-25T03:43:30;12.60;;;7.10;;
77026;SDS011;65956;52.986;17.490;2023-05-25T03:45:56;14.20;;;6.40;;
77026;SDS011;65956;52.986;17.490;2023-05-25T03:48:22;12.60;;;7.10;;
77026;SDS011;65956;52.986;17.490;2023-05-25T03:50:48;13.40;;;7.20;;
77026;SDS011;65956;52.986;17.490;2023-05-25T03:53:14;12.10;;;6.90;;
77026;SDS011;65956;52.986;17.490;2023-05-25T03:55:41;13.30;;;7.30;;
77026;SDS011;65956;52.986;17.490;2023-05-25T03:58:07;13.90;;;6.70;;
77026;SDS011;65956;52.986;17.490;2023-05-25T04:00:36;10.40;;;5.40;;
77026;SDS011;65956;52.986;17.490;2023-05-25T04:03:02;14.90;;;7.30;;
77026;SDS011;65956;52.986;17.490;2023-05-25T04:05:28;11.80;;;7.00;;
77026;SDS011;65956;52.986;17.490;2023-05-25T04:07:55;13.70;;;7.30;;
77026;SDS011;65956;52.986;17.490;2023-05-25T04:10:22;12.90;;;7.20;;
77026;SDS011;65956;52.986;17.490;2023-05-25T04:12:48;12.00;;;6.10;;
77026;SDS011;65956;52.986;17.490;2023-05-25T04:15:14;12.70;;;6.30;;
77026;SDS011;65956;52.986;17.490;2023-05-25T04:18:00;12.20;;;7.00;;
77026;SDS011;65956;52.986;17.490;2023-05-25T04:20:27;12.10;;;7.30;;
77026;SDS011;65956;52.986;17.490;2023-05-25T04:22:54;11.40;;;5.70;;
77026;SDS011;65956;52.986;17.490;2023-05-25T04:25:21;11.70;;;6.60;;
77026;SDS011;65956;52.986;17.490;2023-05-25T04:27:47;13.20;;;7.20;;
77026;SDS011;65956;52.986;17.490;2023-05-25T04:30:23;11.20;;;6.40;;
77026;SDS011;65956;52.986;17.490;2023-05-25T04:33:11;9.20;;;5.10;;
77026;SDS011;65956;52.986;17.490;2023-05-25T04:35:59;14.50;;;8.40;;
77026;SDS011;65956;52.986;17.490;2023-05-25T04:38:26;13.40;;;7.40;;
77026;SDS011;65956;52.986;17.490;2023-05-25T04:40:52;13.70;;;7.50;;
77026;SDS011;65956;52.986;17.490;2023-05-25T04:43:22;12.70;;;7.40;;
77026;SDS011;65956;52.986;17.490;2023-05-25T04:45:51;11.50;;;6.10;;
77026;SDS011;65956;52.986;17.490;2023-05-25T04:48:18;11.60;;;6.70;;
77026;SDS011;65956;52.986;17.490;2023-05-25T04:50:44;11.80;;;6.50;;
77026;SDS011;65956;52.986;17.490;2023-05-25T04:53:10;14.30;;;6.80;;
77026;SDS011;65956;52.986;17.490;2023-05-25T04:55:36;11.00;;;5.80;;
77026;SDS011;65956;52.986;17.490;2023-05-25T04:58:02;13.60;;;6.20;;
77026;SDS011;65956;52.986;17.490;2023-05-25T05:00:30;10.40;;;5.10;;
77026;SDS011;65956;52.986;17.490;2023-05-25T05:02:56;12.50;;;6.10;;
77026;SDS011;65956;52.986;17.490;2023-05-25T05:05:24;11.80;;;5.80;;
77026;SDS011;65956;52.986;17.490;2023-05-25T05:07:51;10.10;;;5.60;;
77026;SDS011;65956;52.986;17.490;2023-05-25T05:10:18;10.90;;;6.20;;
77026;SDS011;65956;52.986;17.490;2023-05-25T05:12:48;10.10;;;5.90;;
77026;SDS011;65956;52.986;17.490;2023-05-25T05:15:14;11.40;;;6.00;;
77026;SDS011;65956;52.986;17.490;2023-05-25T05:17:42;12.00;;;6.40;;
77026;SDS011;65956;52.986;17.490;2023-05-25T05:20:09;12.40;;;6.50;;
77026;SDS011;65956;52.986;17.490;2023-05-25T05:22:36;13.30;;;6.80;;
77026;SDS011;65956;52.986;17.490;2023-05-25T05:25:03;13.00;;;6.20;;
77026;SDS011;65956;52.986;17.490;2023-05-25T05:27:29;11.80;;;5.70;;
77026;SDS011;65956;52.986;17.490;2023-05-25T05:30:01;12.20;;;6.00;;
77026;SDS011;65956;52.986;17.490;2023-05-25T05:32:27;10.70;;;5.80;;
77026;SDS011;65956;52.986;17.490;2023-05-25T05:34:54;12.60;;;6.10;;
77026;SDS011;65956;52.986;17.490;2023-05-25T05:37:39;13.00;;;6.00;;
77026;SDS011;65956;52.986;17.490;2023-05-25T05:40:05;10.70;;;5.80;;
77026;SDS011;65956;52.986;17.490;2023-05-25T05:42:33;11.20;;;5.60;;
77026;SDS011;65956;52.986;17.490;2023-05-25T05:44:59;9.40;;;5.30;;
77026;SDS011;65956;52.986;17.490;2023-05-25T05:47:25;11.10;;;6.30;;
77026;SDS011;65956;52.986;17.490;2023-05-25T05:49:51;10.40;;;5.60;;
77026;SDS011;65956;52.986;17.490;2023-05-25T05:52:17;10.30;;;5.60;;
77026;SDS011;65956;52.986;17.490;2023-05-25T05:54:43;13.20;;;5.90;;
77026;SDS011;65956;52.986;17.490;2023-05-25T05:57:11;14.00;;;6.20;;
77026;SDS011;65956;52.986;17.490;2023-05-25T05:59:37;10.90;;;6.30;;
77026;SDS011;65956;52.986;17.490;2023-05-25T06:02:04;9.50;;;5.90;;
77026;SDS011;65956;52.986;17.490;2023-05-25T06:04:31;10.10;;;5.00;;
77026;SDS011;65956;52.986;17.490;2023-05-25T06:06:57;10.70;;;5.50;;
77026;SDS011;65956;52.986;17.490;2023-05-25T06:09:23;12.00;;;6.30;;
77026;SDS011;65956;52.986;17.490;2023-05-25T06:11:51;11.20;;;6.10;;
77026;SDS011;65956;52.986;17.490;2023-05-25T06:14:17;11.20;;;6.00;;
77026;SDS011;65956;52.986;17.490;2023-05-25T06:16:43;9.20;;;5.80;;
77026;SDS011;65956;52.986;17.490;2023-05-25T06:19:09;11.30;;;5.60;;
77026;SDS011;65956;52.986;17.490;2023-05-25T06:21:35;10.90;;;5.70;;
77026;SDS011;65956;52.986;17.490;2023-05-25T06:24:02;13.20;;;5.90;;
77026;SDS011;65956;52.986;17.490;2023-05-25T06:26:28;9.20;;;5.00;;
77026;SDS011;65956;52.986;17.490;2023-05-25T06:28:55;11.50;;;5.90;;
77026;SDS011;65956;52.986;17.490;2023-05-25T06:31:22;9.30;;;5.10;;
77026;SDS011;65956;52.986;17.490;2023-05-25T06:33:48;10.50;;;6.00;;
77026;SDS011;65956;52.986;17.490;2023-05-25T06:36:14;9.80;;;5.20;;
77026;SDS011;65956;52.986;17.490;2023-05-25T06:38:40;10.80;;;6.10;;
77026;SDS011;65956;52.986;17.490;2023-05-25T06:41:07;9.10;;;4.90;;
77026;SDS011;65956;52.986;17.490;2023-05-25T06:43:34;11.10;;;5.30;;
77026;SDS011;65956;52.986;17.490;2023-05-25T06:46:14;12.60;;;5.70;;
77026;SDS011;65956;52.986;17.490;2023-05-25T06:48:42;10.10;;;4.80;;
77026;SDS011;65956;52.986;17.490;2023-05-25T06:51:09;7.50;;;4.60;;
77026;SDS011;65956;52.986;17.490;2023-05-25T06:53:36;10.40;;;4.90;;
77026;SDS011;65956;52.986;17.490;2023-05-25T06:56:03;9.70;;;4.40;;
77026;SDS011;65956;52.986;17.490;2023-05-25T06:58:29;8.90;;;4.80;;
77026;SDS011;65956;52.986;17.490;2023-05-25T07:00:55;7.70;;;4.10;;
77026;SDS011;65956;52.986;17.490;2023-05-25T07:03:21;10.20;;;4.80;;
77026;SDS011;65956;52.986;17.490;2023-05-25T07:05:47;7.70;;;5.10;;
77026;SDS011;65956;52.986;17.490;2023-05-25T07:08:13;10.80;;;5.60;;
77026;SDS011;65956;52.986;17.490;2023-05-25T07:10:39;8.80;;;5.20;;
77026;SDS011;65956;52.986;17.490;2023-05-25T07:13:05;10.50;;;5.40;;
77026;SDS011;65956;52.986;17.490;2023-05-25T07:15:31;7.60;;;4.70;;
77026;SDS011;65956;52.986;17.490;2023-05-25T07:17:57;7.80;;;4.80;;
77026;SDS011;65956;52.986;17.490;2023-05-25T07:20:23;10.50;;;4.90;;
77026;SDS011;65956;52.986;17.490;2023-05-25T07:22:49;6.30;;;4.10;;
77026;SDS011;65956;52.986;17.490;2023-05-25T07:25:16;8.80;;;4.80;;
77026;SDS011;65956;52.986;17.490;2023-05-25T07:27:42;9.70;;;5.10;;
77026;SDS011;65956;52.986;17.490;2023-05-25T07:30:12;10.80;;;5.10;;
77026;SDS011;65956;52.986;17.490;2023-05-25T07:32:38;9.40;;;4.80;;
77026;SDS011;65956;52.986;17.490;2023-05-25T07:35:05;6.80;;;4.50;;
77026;SDS011;65956;52.986;17.490;2023-05-25T07:37:31;9.70;;;5.00;;
77026;SDS011;65956;52.986;17.490;2023-05-25T07:39:57;8.40;;;5.60;;
77026;SDS011;65956;52.986;17.490;2023-05-25T07:42:23;7.10;;;4.40;;
77026;SDS011;65956;52.986;17.490;2023-05-25T07:44:49;12.90;;;5.20;;
77026;SDS011;65956;52.986;17.490;2023-05-25T07:47:15;7.30;;;4.20;;
77026;SDS011;65956;52.986;17.490;2023-05-25T07:49:41;7.40;;;4.70;;
77026;SDS011;65956;52.986;17.490;2023-05-25T07:52:07;7.10;;;4.30;;
77026;SDS011;65956;52.986;17.490;2023-05-25T07:54:33;8.00;;;4.40;;
77026;SDS011;65956;52.986;17.490;2023-05-25T07:57:04;7.90;;;4.30;;
77026;SDS011;65956;52.986;17.490;2023-05-25T07:59:31;7.10;;;4.40;;
77026;SDS011;65956;52.986;17.490;2023-05-25T08:01:57;6.60;;;4.10;;
77026;SDS011;65956;52.986;17.490;2023-05-25T08:04:23;8.00;;;3.70;;
77026;SDS011;65956;52.986;17.490;2023-05-25T08:06:49;7.50;;;4.30;;
77026;SDS011;65956;52.986;17.490;2023-05-25T08:09:15;6.60;;;4.00;;
77026;SDS011;65956;52.986;17.490;2023-05-25T08:11:41;5.40;;;3.30;;
77026;SDS011;65956;52.986;17.490;2023-05-25T08:14:09;6.70;;;4.00;;
77026;SDS011;65956;52.986;17.490;2023-05-25T08:16:35;6.60;;;3.50;;
77026;SDS011;65956;52.986;17.490;2023-05-25T08:19:01;6.60;;;3.50;;
77026;SDS011;65956;52.986;17.490;2023-05-25T08:21:28;5.70;;;3.30;;
77026;SDS011;65956;52.986;17.490;2023-05-25T08:23:54;8.50;;;3.30;;
77026;SDS011;65956;52.986;17.490;2023-05-25T08:26:20;5.40;;;2.80;;
77026;SDS011;65956;52.986;17.490;2023-05-25T08:28:47;6.00;;;3.60;;
77026;SDS011;65956;52.986;17.490;2023-05-25T08:31:13;6.30;;;3.00;;
77026;SDS011;65956;52.986;17.490;2023-05-25T08:33:39;6.30;;;3.10;;
77026;SDS011;65956;52.986;17.490;2023-05-25T08:36:05;8.50;;;2.90;;
77026;SDS011;65956;52.986;17.490;2023-05-25T08:38:33;7.30;;;3.30;;
77026;SDS011;65956;52.986;17.490;2023-05-25T08:41:03;6.30;;;2.80;;
77026;SDS011;65956;52.986;17.490;2023-05-25T08:43:31;8.80;;;3.40;;
77026;SDS011;65956;52.986;17.490;2023-05-25T08:46:04;6.50;;;3.10;;
77026;SDS011;65956;52.986;17.490;2023-05-25T08:48:33;9.10;;;3.40;;
77026;SDS011;65956;52.986;17.490;2023-05-25T08:51:03;6.20;;;3.00;;
77026;SDS011;65956;52.986;17.490;2023-05-25T08:53:33;5.90;;;2.70;;
77026;SDS011;65956;52.986;17.490;2023-05-25T08:56:01;5.20;;;2.20;;
77026;SDS011;65956;52.986;17.490;2023-05-25T08:58:41;6.80;;;2.70;;
77026;SDS011;65956;52.986;17.490;2023-05-25T09:01:10;8.30;;;2.60;;
77026;SDS011;65956;52.986;17.490;2023-05-25T09:03:39;7.30;;;2.60;;
77026;SDS011;65956;52.986;17.490;2023-05-25T09:06:06;4.20;;;2.30;;
77026;SDS011;65956;52.986;17.490;2023-05-25T09:08:33;5.00;;;2.50;;
77026;SDS011;65956;52.986;17.490;2023-05-25T09:11:00;5.80;;;2.60;;
77026;SDS011;65956;52.986;17.490;2023-05-25T09:13:27;4.30;;;2.30;;
77026;SDS011;65956;52.986;17.490;2023-05-25T09:15:53;5.40;;;2.70;;
77026;SDS011;65956;52.986;17.490;2023-05-25T09:18:20;4.90;;;2.00;;
77026;SDS011;65956;52.986;17.490;2023-05-25T09:20:46;7.20;;;2.70;;
77026;SDS011;65956;52.986;17.490;2023-05-25T09:23:12;5.70;;;2.60;;
77026;SDS011;65956;52.986;17.490;2023-05-25T09:25:38;6.50;;;3.30;;
77026;SDS011;65956;52.986;17.490;2023-05-25T09:28:07;7.50;;;2.80;;
77026;SDS011;65956;52.986;17.490;2023-05-25T09:30:34;5.30;;;2.50;;
77026;SDS011;65956;52.986;17.490;2023-05-25T09:33:10;8.10;;;2.80;;
77026;SDS011;65956;52.986;17.490;2023-05-25T09:35:37;7.40;;;3.10;;
77026;SDS011;65956;52.986;17.490;2023-05-25T09:38:04;5.70;;;2.50;;
77026;SDS011;65956;52.986;17.490;2023-05-25T09:40:34;6.50;;;2.80;;
77026;SDS011;65956;52.986;17.490;2023-05-25T09:43:01;6.50;;;2.80;;
77026;SDS011;65956;52.986;17.490;2023-05-25T09:45:28;5.70;;;2.50;;
77026;SDS011;65956;52.986;17.490;2023-05-25T09:47:55;5.00;;;2.50;;
77026;SDS011;65956;52.986;17.490;2023-05-25T09:50:21;5.40;;;2.50;;
77026;SDS011;65956;52.986;17.490;2023-05-25T09:52:47;6.00;;;3.00;;
77026;SDS011;65956;52.986;17.490;2023-05-25T09:55:14;7.10;;;2.50;;
77026;SDS011;65956;52.986;17.490;2023-05-25T09:57:41;6.70;;;2.60;;
77026;SDS011;65956;52.986;17.490;2023-05-25T10:00:08;5.10;;;2.70;;
77026;SDS011;65956;52.986;17.490;2023-05-25T10:02:39;5.70;;;2.80;;
77026;SDS011;65956;52.986;17.490;2023-05-25T10:05:06;5.10;;;2.60;;
77026;SDS011;65956;52.986;17.490;2023-05-25T10:07:33;5.10;;;2.70;;
77026;SDS011;65956;52.986;17.490;2023-05-25T10:10:01;5.70;;;2.40;;
77026;SDS011;65956;52.986;17.490;2023-05-25T10:12:32;6.70;;;2.40;;
77026;SDS011;65956;52.986;17.490;2023-05-25T10:15:00;6.40;;;2.70;;
77026;SDS011;65956;52.986;17.490;2023-05-25T10:17:29;5.60;;;2.50;;
77026;SDS011;65956;52.986;17.490;2023-05-25T10:20:02;7.60;;;2.70;;
77026;SDS011;65956;52.986;17.490;2023-05-25T10:27:38;6.60;;;2.60;;
77026;SDS011;65956;52.986;17.490;2023-05-25T10:30:06;4.40;;;2.30;;
77026;SDS011;65956;52.986;17.490;2023-05-25T10:32:33;6.40;;;2.50;;
77026;SDS011;65956;52.986;17.490;2023-05-25T10:35:02;5.80;;;2.70;;
77026;SDS011;65956;52.986;17.490;2023-05-25T10:37:30;5.70;;;2.50;;
77026;SDS011;65956;52.986;17.490;2023-05-25T10:39:58;7.10;;;3.00;;
77026;SDS011;65956;52.986;17.490;2023-05-25T10:42:24;4.70;;;2.60;;
77026;SDS011;65956;52.986;17.490;2023-05-25T10:44:51;6.30;;;2.50;;
77026;SDS011;65956;52.986;17.490;2023-05-25T10:47:18;5.40;;;2.80;;
77026;SDS011;65956;52.986;17.490;2023-05-25T10:49:52;7.10;;;3.10;;
77026;SDS011;65956;52.986;17.490;2023-05-25T10:52:19;6.40;;;3.10;;
77026;SDS011;65956;52.986;17.490;2023-05-25T10:54:47;4.60;;;2.50;;
77026;SDS011;65956;52.986;17.490;2023-05-25T10:57:19;6.70;;;3.50;;
77026;SDS011;65956;52.986;17.490;2023-05-25T10:59:47;5.70;;;2.80;;
77026;SDS011;65956;52.986;17.490;2023-05-25T11:02:19;7.30;;;3.10;;
77026;SDS011;65956;52.986;17.490;2023-05-25T11:04:49;5.30;;;3.00;;
77026;SDS011;65956;52.986;17.490;2023-05-25T11:07:15;6.20;;;3.00;;
77026;SDS011;65956;52.986;17.490;2023-05-25T11:09:54;6.00;;;2.90;;
77026;SDS011;65956;52.986;17.490;2023-05-25T11:12:22;5.40;;;3.20;;
77026;SDS011;65956;52.986;17.490;2023-05-25T11:15:07;4.80;;;3.10;;
77026;SDS011;65956;52.986;17.490;2023-05-25T11:17:44;4.90;;;3.00;;
77026;SDS011;65956;52.986;17.490;2023-05-25T11:20:26;5.60;;;3.20;;
77026;SDS011;65956;52.986;17.490;2023-05-25T11:22:53;5.70;;;3.20;;
77026;SDS011;65956;52.986;17.490;2023-05-25T11:25:34;6.40;;;3.30;;
77026;SDS011;65956;52.986;17.490;2023-05-25T11:28:04;5.50;;;3.30;;
77026;SDS011;65956;52.986;17.490;2023-05-25T11:30:31;6.20;;;3.20;;
77026;SDS011;65956;52.986;17.490;2023-05-25T11:33:02;5.60;;;3.10;;
77026;SDS011;65956;52.986;17.490;2023-05-25T11:35:30;5.50;;;3.00;;
77026;SDS011;65956;52.986;17.490;2023-05-25T11:38:03;7.30;;;3.60;;
77026;SDS011;65956;52.986;17.490;2023-05-25T11:40:30;6.50;;;3.40;;
77026;SDS011;65956;52.986;17.490;2023-05-25T11:42:58;8.20;;;3.80;;
77026;SDS011;65956;52.986;17.490;2023-05-25T11:45:28;6.90;;;3.30;;
77026;SDS011;65956;52.986;17.490;2023-05-25T11:47:58;6.10;;;3.70;;
77026;SDS011;65956;52.986;17.490;2023-05-25T11:50:24;5.70;;;3.20;;
77026;SDS011;65956;52.986;17.490;2023-05-25T11:52:50;5.20;;;3.50;;
77026;SDS011;65956;52.986;17.490;2023-05-25T11:55:16;7.10;;;3.70;;
77026;SDS011;65956;52.986;17.490;2023-05-25T11:57:42;7.00;;;3.60;;
77026;SDS011;65956;52.986;17.490;2023-05-25T12:00:08;5.50;;;3.20;;
77026;SDS011;65956;52.986;17.490;2023-05-25T12:02:38;5.30;;;3.20;;
77026;SDS011;65956;52.986;17.490;2023-05-25T12:05:08;5.70;;;3.30;;
77026;SDS011;65956;52.986;17.490;2023-05-25T12:07:40;5.10;;;3.30;;
77026;SDS011;65956;52.986;17.490;2023-05-25T12:10:10;5.00;;;3.20;;
77026;SDS011;65956;52.986;17.490;2023-05-25T12:12:41;6.70;;;3.30;;
77026;SDS011;65956;52.986;17.490;2023-05-25T12:15:08;7.50;;;3.70;;
77026;SDS011;65956;52.986;17.490;2023-05-25T12:17:37;8.60;;;3.60;;
77026;SDS011;65956;52.986;17.490;2023-05-25T12:20:06;6.50;;;3.60;;
77026;SDS011;65956;52.986;17.490;2023-05-25T12:22:32;6.00;;;3.40;;
77026;SDS011;65956;52.986;17.490;2023-05-25T12:24:59;5.50;;;3.20;;
77026;SDS011;65956;52.986;17.490;2023-05-25T12:27:25;7.00;;;3.20;;
77026;SDS011;65956;52.986;17.490;2023-05-25T12:29:52;6.50;;;3.20;;
77026;SDS011;65956;52.986;17.490;2023-05-25T12:32:18;5.20;;;3.00;;
77026;SDS011;65956;52.986;17.490;2023-05-25T12:34:44;5.20;;;2.60;;
77026;SDS011;65956;52.986;17.490;2023-05-25T12:37:16;9.70;;;2.90;;
77026;SDS011;65956;52.986;17.490;2023-05-25T12:39:44;6.50;;;2.90;;
77026;SDS011;65956;52.986;17.490;2023-05-25T12:42:14;5.50;;;2.90;;
77026;SDS011;65956;52.986;17.490;2023-05-25T12:44:41;5.10;;;2.70;;
77026;SDS011;65956;52.986;17.490;2023-05-25T12:47:18;6.30;;;3.00;;
77026;SDS011;65956;52.986;17.490;2023-05-25T12:52:33;4.90;;;2.50;;
77026;SDS011;65956;52.986;17.490;2023-05-25T12:57:51;4.20;;;2.70;;
77026;SDS011;65956;52.986;17.490;2023-05-25T13:00:46;4.00;;;2.30;;
77026;SDS011;65956;52.986;17.490;2023-05-25T13:03:12;5.40;;;2.60;;
77026;SDS011;65956;52.986;17.490;2023-05-25T13:05:38;6.20;;;2.50;;
77026;SDS011;65956;52.986;17.490;2023-05-25T13:08:04;8.20;;;2.80;;
77026;SDS011;65956;52.986;17.490;2023-05-25T13:10:31;5.40;;;2.60;;
77026;SDS011;65956;52.986;17.490;2023-05-25T13:12:58;7.40;;;2.60;;
77026;SDS011;65956;52.986;17.490;2023-05-25T13:15:25;6.10;;;2.80;;
77026;SDS011;65956;52.986;17.490;2023-05-25T13:17:52;5.00;;;3.00;;
77026;SDS011;65956;52.986;17.490;2023-05-25T13:20:22;4.10;;;2.20;;
77026;SDS011;65956;52.986;17.490;2023-05-25T13:22:50;5.70;;;2.80;;
77026;SDS011;65956;52.986;17.490;2023-05-25T13:25:18;4.60;;;2.40;;
77026;SDS011;65956;52.986;17.490;2023-05-25T13:27:47;4.20;;;2.40;;
77026;SDS011;65956;52.986;17.490;2023-05-25T13:30:15;7.00;;;2.60;;
77026;SDS011;65956;52.986;17.490;2023-05-25T13:32:42;5.10;;;2.50;;
77026;SDS011;65956;52.986;17.490;2023-05-25T13:35:08;5.90;;;2.90;;
77026;SDS011;65956;52.986;17.490;2023-05-25T13:37:42;5.20;;;2.50;;
77026;SDS011;65956;52.986;17.490;2023-05-25T13:40:08;5.20;;;2.50;;
77026;SDS011;65956;52.986;17.490;2023-05-25T13:42:34;5.00;;;2.30;;
77026;SDS011;65956;52.986;17.490;2023-05-25T13:45:01;4.60;;;2.40;;
77026;SDS011;65956;52.986;17.490;2023-05-25T13:47:27;5.80;;;2.20;;
77026;SDS011;65956;52.986;17.490;2023-05-25T13:49:53;5.00;;;2.30;;
77026;SDS011;65956;52.986;17.490;2023-05-25T13:52:19;4.30;;;2.30;;
77026;SDS011;65956;52.986;17.490;2023-05-25T13:54:45;5.30;;;2.30;;
77026;SDS011;65956;52.986;17.490;2023-05-25T13:57:11;5.10;;;2.30;;
77026;SDS011;65956;52.986;17.490;2023-05-25T13:59:37;5.10;;;2.70;;
77026;SDS011;65956;52.986;17.490;2023-05-25T14:02:03;5.60;;;2.50;;
77026;SDS011;65956;52.986;17.490;2023-05-25T14:04:29;6.20;;;3.30;;
77026;SDS011;65956;52.986;17.490;2023-05-25T14:06:55;6.80;;;2.90;;
77026;SDS011;65956;52.986;17.490;2023-05-25T14:09:21;6.30;;;2.50;;
77026;SDS011;65956;52.986;17.490;2023-05-25T14:11:48;6.30;;;2.50;;
77026;SDS011;65956;52.986;17.490;2023-05-25T14:14:14;5.30;;;2.40;;
77026;SDS011;65956;52.986;17.490;2023-05-25T14:16:40;5.20;;;1.80;;
77026;SDS011;65956;52.986;17.490;2023-05-25T14:19:06;4.90;;;2.10;;
77026;SDS011;65956;52.986;17.490;2023-05-25T14:21:31;4.50;;;2.30;;
77026;SDS011;65956;52.986;17.490;2023-05-25T14:23:58;5.50;;;2.20;;
77026;SDS011;65956;52.986;17.490;2023-05-25T14:26:24;6.40;;;2.40;;
77026;SDS011;65956;52.986;17.490;2023-05-25T14:28:52;7.10;;;2.20;;
77026;SDS011;65956;52.986;17.490;2023-05-25T14:31:18;5.30;;;2.40;;
77026;SDS011;65956;52.986;17.490;2023-05-25T14:33:44;5.50;;;2.20;;
77026;SDS011;65956;52.986;17.490;2023-05-25T14:36:10;5.10;;;2.10;;
77026;SDS011;65956;52.986;17.490;2023-05-25T14:38:36;5.80;;;2.50;;
77026;SDS011;65956;52.986;17.490;2023-05-25T14:41:02;6.20;;;2.50;;
77026;SDS011;65956;52.986;17.490;2023-05-25T14:43:28;7.30;;;2.40;;
77026;SDS011;65956;52.986;17.490;2023-05-25T14:45:55;4.80;;;2.40;;
77026;SDS011;65956;52.986;17.490;2023-05-25T14:48:21;4.50;;;2.70;;